Aviation Digital Data Service (ADDS)

Output produced by METARs form (0431 UTC 22 September 2017)
found at http://www.aviationweather.gov/adds/metars/
 
TAF SMJP 220400Z 2206/2306 VRB02KT CAVOK TX35/2218Z TN23/2210Z 
     BECMG 2212/2214 14010KT SCT020 
     PROB30 
     TEMPO 2219/2221 5000 SHRA FEW018TCU 
     FM222200 09005KT CAVOK